sensor_id;sensor_type;location;lat;lon;timestamp;temperature;humidity
23991;DHT22;12205;50.600;4.608;2022-12-18T00:01:16;-4.90;99.90
23991;DHT22;12205;50.600;4.608;2022-12-18T00:03:46;-5.00;99.90
23991;DHT22;12205;50.600;4.608;2022-12-18T00:06:14;-5.00;99.90
23991;DHT22;12205;50.600;4.608;2022-12-18T00:08:42;-5.00;99.90
23991;DHT22;12205;50.600;4.608;2022-12-18T00:11:15;-5.00;99.90
23991;DHT22;12205;50.600;4.608;2022-12-18T00:13:45;-5.00;99.90
23991;DHT22;12205;50.600;4.608;2022-12-18T00:16:14;-5.00;99.90
23991;DHT22;12205;50.600;4.608;2022-12-18T00:18:44;-5.10;99.90
23991;DHT22;12205;50.600;4.608;2022-12-18T00:21:12;-5.10;99.90
23991;DHT22;12205;50.600;4.608;2022-12-18T00:23:41;-5.10;99.90
23991;DHT22;12205;50.600;4.608;2022-12-18T00:26:15;-5.20;99.90
23991;DHT22;12205;50.600;4.608;2022-12-18T00:28:44;-5.20;99.90
23991;DHT22;12205;50.600;4.608;2022-12-18T00:31:13;-5.20;99.90
23991;DHT22;12205;50.600;4.608;2022-12-18T00:33:41;-5.20;99.90
23991;DHT22;12205;50.600;4.608;2022-12-18T00:36:11;-5.20;99.90
23991;DHT22;12205;50.600;4.608;2022-12-18T00:38:39;-5.20;99.90
23991;DHT22;12205;50.600;4.608;2022-12-18T00:41:08;-5.20;99.90
23991;DHT22;12205;50.600;4.608;2022-12-18T00:43:38;-5.30;99.90
23991;DHT22;12205;50.600;4.608;2022-12-18T00:46:06;-5.30;99.90
23991;DHT22;12205;50.600;4.608;2022-12-18T00:48:33;-5.30;99.90
23991;DHT22;12205;50.600;4.608;2022-12-18T00:51:00;-5.40;99.90
23991;DHT22;12205;50.600;4.608;2022-12-18T00:53:27;-5.40;99.90
23991;DHT22;12205;50.600;4.608;2022-12-18T00:55:55;-5.40;99.90
23991;DHT22;12205;50.600;4.608;2022-12-18T00:58:22;-5.50;99.90
23991;DHT22;12205;50.600;4.608;2022-12-18T01:00:51;-5.50;99.90
23991;DHT22;12205;50.600;4.608;2022-12-18T01:03:18;-5.50;99.90
23991;DHT22;12205;50.600;4.608;2022-12-18T01:05:45;-5.50;99.90
23991;DHT22;12205;50.600;4.608;2022-12-18T01:08:12;-5.50;99.90
23991;DHT22;12205;50.600;4.608;2022-12-18T01:10:42;-5.50;99.90
23991;DHT22;12205;50.600;4.608;2022-12-18T01:13:09;-5.50;99.90
23991;DHT22;12205;50.600;4.608;2022-12-18T01:15:37;-5.50;99.90
23991;DHT22;12205;50.600;4.608;2022-12-18T01:18:06;-5.50;99.90
23991;DHT22;12205;50.600;4.608;2022-12-18T01:20:33;-5.50;99.90
23991;DHT22;12205;50.600;4.608;2022-12-18T01:23:00;-5.40;99.90
23991;DHT22;12205;50.600;4.608;2022-12-18T01:25:27;-5.40;99.90
23991;DHT22;12205;50.600;4.608;2022-12-18T01:27:54;-5.40;99.90
23991;DHT22;12205;50.600;4.608;2022-12-18T01:30:21;-5.40;99.90
23991;DHT22;12205;50.600;4.608;2022-12-18T01:32:49;-5.40;99.90
23991;DHT22;12205;50.600;4.608;2022-12-18T01:35:17;-5.40;99.90
23991;DHT22;12205;50.600;4.608;2022-12-18T01:37:45;-5.30;99.90
23991;DHT22;12205;50.600;4.608;2022-12-18T01:40:13;-5.30;99.90
23991;DHT22;12205;50.600;4.608;2022-12-18T01:42:40;-5.30;99.90
23991;DHT22;12205;50.600;4.608;2022-12-18T01:45:22;-5.40;99.90
23991;DHT22;12205;50.600;4.608;2022-12-18T01:47:55;-5.40;99.90
23991;DHT22;12205;50.600;4.608;2022-12-18T01:50:30;-5.40;99.90
23991;DHT22;12205;50.600;4.608;2022-12-18T01:53:03;-5.30;99.90
23991;DHT22;12205;50.600;4.608;2022-12-18T01:55:39;-5.20;99.90
23991;DHT22;12205;50.600;4.608;2022-12-18T01:58:09;-5.20;99.90
23991;DHT22;12205;50.600;4.608;2022-12-18T02:00:37;-5.30;99.90
23991;DHT22;12205;50.600;4.608;2022-12-18T02:03:04;-5.30;99.90
23991;DHT22;12205;50.600;4.608;2022-12-18T02:05:43;-5.30;99.90
23991;DHT22;12205;50.600;4.608;2022-12-18T02:08:19;-5.30;99.90
23991;DHT22;12205;50.600;4.608;2022-12-18T02:10:54;-5.30;99.90
23991;DHT22;12205;50.600;4.608;2022-12-18T02:13:32;-5.40;99.90
23991;DHT22;12205;50.600;4.608;2022-12-18T02:16:10;-5.40;99.90
23991;DHT22;12205;50.600;4.608;2022-12-18T02:18:48;-5.40;99.90
23991;DHT22;12205;50.600;4.608;2022-12-18T02:21:28;-5.40;99.90
23991;DHT22;12205;50.600;4.608;2022-12-18T02:24:17;-5.40;99.90
23991;DHT22;12205;50.600;4.608;2022-12-18T02:26:56;-5.40;99.90
23991;DHT22;12205;50.600;4.608;2022-12-18T02:29:32;-5.50;99.90
23991;DHT22;12205;50.600;4.608;2022-12-18T02:32:07;-5.50;99.90
23991;DHT22;12205;50.600;4.608;2022-12-18T02:34:39;-5.60;99.90
23991;DHT22;12205;50.600;4.608;2022-12-18T02:37:15;-5.70;99.90
23991;DHT22;12205;50.600;4.608;2022-12-18T02:39:49;-5.60;99.90
23991;DHT22;12205;50.600;4.608;2022-12-18T02:42:22;-5.60;99.90
23991;DHT22;12205;50.600;4.608;2022-12-18T02:44:51;-5.60;99.90
23991;DHT22;12205;50.600;4.608;2022-12-18T02:47:24;-5.70;99.90
23991;DHT22;12205;50.600;4.608;2022-12-18T02:50:02;-5.70;99.90
23991;DHT22;12205;50.600;4.608;2022-12-18T02:52:43;-5.70;99.90
23991;DHT22;12205;50.600;4.608;2022-12-18T02:55:27;-5.70;99.90
23991;DHT22;12205;50.600;4.608;2022-12-18T02:58:12;-5.80;99.90
23991;DHT22;12205;50.600;4.608;2022-12-18T03:00:53;-5.80;99.90
23991;DHT22;12205;50.600;4.608;2022-12-18T03:03:31;-5.90;99.90
23991;DHT22;12205;50.600;4.608;2022-12-18T03:06:08;-5.90;99.90
23991;DHT22;12205;50.600;4.608;2022-12-18T03:08:44;-5.90;99.90
23991;DHT22;12205;50.600;4.608;2022-12-18T03:11:16;-6.00;99.90
23991;DHT22;12205;50.600;4.608;2022-12-18T03:14:07;-6.00;99.90
23991;DHT22;12205;50.600;4.608;2022-12-18T03:16:40;-6.00;99.90
23991;DHT22;12205;50.600;4.608;2022-12-18T03:19:13;-6.00;99.90
23991;DHT22;12205;50.600;4.608;2022-12-18T03:21:45;-6.00;99.90
23991;DHT22;12205;50.600;4.608;2022-12-18T03:24:18;-6.00;99.90
23991;DHT22;12205;50.600;4.608;2022-12-18T03:26:52;-6.10;99.90
23991;DHT22;12205;50.600;4.608;2022-12-18T03:29:28;-6.00;99.90
23991;DHT22;12205;50.600;4.608;2022-12-18T03:32:04;-6.10;99.90
23991;DHT22;12205;50.600;4.608;2022-12-18T03:34:35;-6.00;99.90
23991;DHT22;12205;50.600;4.608;2022-12-18T03:37:07;-6.00;99.90
23991;DHT22;12205;50.600;4.608;2022-12-18T03:39:36;-6.10;99.90
23991;DHT22;12205;50.600;4.608;2022-12-18T03:42:07;-6.10;99.90
23991;DHT22;12205;50.600;4.608;2022-12-18T03:44:54;-6.10;99.90
23991;DHT22;12205;50.600;4.608;2022-12-18T03:47:33;-6.10;99.90
23991;DHT22;12205;50.600;4.608;2022-12-18T03:50:11;-6.20;99.90
23991;DHT22;12205;50.600;4.608;2022-12-18T03:52:49;-6.20;99.90
23991;DHT22;12205;50.600;4.608;2022-12-18T03:55:22;-6.20;99.90
23991;DHT22;12205;50.600;4.608;2022-12-18T03:58:00;-6.20;99.90
23991;DHT22;12205;50.600;4.608;2022-12-18T04:00:41;-6.20;99.90
23991;DHT22;12205;50.600;4.608;2022-12-18T04:03:11;-6.20;99.90
23991;DHT22;12205;50.600;4.608;2022-12-18T04:05:45;-6.20;99.90
23991;DHT22;12205;50.600;4.608;2022-12-18T04:08:18;-6.20;99.90
23991;DHT22;12205;50.600;4.608;2022-12-18T04:10:55;-6.20;99.90
23991;DHT22;12205;50.600;4.608;2022-12-18T04:13:27;-6.30;99.90
23991;DHT22;12205;50.600;4.608;2022-12-18T04:15:58;-6.30;99.90
23991;DHT22;12205;50.600;4.608;2022-12-18T04:18:26;-6.30;99.90
23991;DHT22;12205;50.600;4.608;2022-12-18T04:20:54;-6.30;99.90
23991;DHT22;12205;50.600;4.608;2022-12-18T04:23:21;-6.40;99.90
23991;DHT22;12205;50.600;4.608;2022-12-18T04:25:52;-6.40;99.90
23991;DHT22;12205;50.600;4.608;2022-12-18T04:28:32;-6.40;99.90
23991;DHT22;12205;50.600;4.608;2022-12-18T04:31:01;-6.30;99.90
23991;DHT22;12205;50.600;4.608;2022-12-18T04:33:28;-6.30;99.90
23991;DHT22;12205;50.600;4.608;2022-12-18T04:35:57;-6.30;99.90
23991;DHT22;12205;50.600;4.608;2022-12-18T04:38:24;-6.30;99.90
23991;DHT22;12205;50.600;4.608;2022-12-18T04:40:59;-6.40;99.90
23991;DHT22;12205;50.600;4.608;2022-12-18T04:43:27;-6.40;99.90
23991;DHT22;12205;50.600;4.608;2022-12-18T04:46:02;-6.50;99.90
23991;DHT22;12205;50.600;4.608;2022-12-18T04:48:30;-6.50;99.90
23991;DHT22;12205;50.600;4.608;2022-12-18T04:50:58;-6.60;99.90
23991;DHT22;12205;50.600;4.608;2022-12-18T04:53:25;-6.60;99.90
23991;DHT22;12205;50.600;4.608;2022-12-18T04:56:02;-6.70;99.90
23991;DHT22;12205;50.600;4.608;2022-12-18T04:58:33;-6.60;99.90
23991;DHT22;12205;50.600;4.608;2022-12-18T05:01:00;-6.50;99.90
23991;DHT22;12205;50.600;4.608;2022-12-18T05:03:29;-6.50;99.90
23991;DHT22;12205;50.600;4.608;2022-12-18T05:05:57;-6.50;99.90
23991;DHT22;12205;50.600;4.608;2022-12-18T05:08:24;-6.60;99.90
23991;DHT22;12205;50.600;4.608;2022-12-18T05:10:58;-6.60;99.90
23991;DHT22;12205;50.600;4.608;2022-12-18T05:13:26;-6.50;99.90
23991;DHT22;12205;50.600;4.608;2022-12-18T05:15:54;-6.50;99.90
23991;DHT22;12205;50.600;4.608;2022-12-18T05:18:24;-6.50;99.90
23991;DHT22;12205;50.600;4.608;2022-12-18T05:20:53;-6.50;99.90
23991;DHT22;12205;50.600;4.608;2022-12-18T05:23:21;-6.50;99.90
23991;DHT22;12205;50.600;4.608;2022-12-18T05:25:51;-6.50;99.90
23991;DHT22;12205;50.600;4.608;2022-12-18T05:28:19;-6.50;99.90
23991;DHT22;12205;50.600;4.608;2022-12-18T05:30:49;-6.50;99.90
23991;DHT22;12205;50.600;4.608;2022-12-18T05:33:17;-6.60;99.90
23991;DHT22;12205;50.600;4.608;2022-12-18T05:35:50;-6.50;99.90
23991;DHT22;12205;50.600;4.608;2022-12-18T05:38:17;-6.60;99.90
23991;DHT22;12205;50.600;4.608;2022-12-18T05:40:44;-6.50;99.90
23991;DHT22;12205;50.600;4.608;2022-12-18T05:43:12;-6.50;99.90
23991;DHT22;12205;50.600;4.608;2022-12-18T05:45:39;-6.50;99.90
23991;DHT22;12205;50.600;4.608;2022-12-18T05:48:07;-6.50;99.90
23991;DHT22;12205;50.600;4.608;2022-12-18T05:50:36;-6.50;99.90
23991;DHT22;12205;50.600;4.608;2022-12-18T05:53:06;-6.50;99.90
23991;DHT22;12205;50.600;4.608;2022-12-18T05:55:33;-6.50;99.90
23991;DHT22;12205;50.600;4.608;2022-12-18T05:58:01;-6.60;99.90
23991;DHT22;12205;50.600;4.608;2022-12-18T06:00:29;-6.60;99.90
23991;DHT22;12205;50.600;4.608;2022-12-18T06:02:57;-6.60;99.90
23991;DHT22;12205;50.600;4.608;2022-12-18T06:05:25;-6.60;99.90
23991;DHT22;12205;50.600;4.608;2022-12-18T06:07:52;-6.60;99.90
23991;DHT22;12205;50.600;4.608;2022-12-18T06:10:21;-6.50;99.90
23991;DHT22;12205;50.600;4.608;2022-12-18T06:12:48;-6.60;99.90
23991;DHT22;12205;50.600;4.608;2022-12-18T06:15:15;-6.60;99.90
23991;DHT22;12205;50.600;4.608;2022-12-18T06:17:42;-6.70;99.90
23991;DHT22;12205;50.600;4.608;2022-12-18T06:20:10;-6.60;99.90
23991;DHT22;12205;50.600;4.608;2022-12-18T06:22:37;-6.60;99.90
23991;DHT22;12205;50.600;4.608;2022-12-18T06:25:05;-6.60;99.90
23991;DHT22;12205;50.600;4.608;2022-12-18T06:27:34;-6.60;99.90
23991;DHT22;12205;50.600;4.608;2022-12-18T06:30:02;-6.60;99.90
23991;DHT22;12205;50.600;4.608;2022-12-18T06:32:29;-6.60;99.90
23991;DHT22;12205;50.600;4.608;2022-12-18T06:34:56;-6.60;99.90
23991;DHT22;12205;50.600;4.608;2022-12-18T06:37:24;-6.50;99.90
23991;DHT22;12205;50.600;4.608;2022-12-18T06:39:51;-6.60;99.90
23991;DHT22;12205;50.600;4.608;2022-12-18T06:42:19;-6.60;99.90
23991;DHT22;12205;50.600;4.608;2022-12-18T06:44:47;-6.50;99.90
23991;DHT22;12205;50.600;4.608;2022-12-18T06:47:14;-6.50;99.90
23991;DHT22;12205;50.600;4.608;2022-12-18T06:49:41;-6.50;99.90
23991;DHT22;12205;50.600;4.608;2022-12-18T06:52:09;-6.50;99.90
23991;DHT22;12205;50.600;4.608;2022-12-18T06:54:37;-6.50;99.90
23991;DHT22;12205;50.600;4.608;2022-12-18T06:57:04;-6.50;99.90
23991;DHT22;12205;50.600;4.608;2022-12-18T06:59:31;-6.50;99.90
23991;DHT22;12205;50.600;4.608;2022-12-18T07:01:59;-6.40;99.90
23991;DHT22;12205;50.600;4.608;2022-12-18T07:04:28;-6.50;99.90
23991;DHT22;12205;50.600;4.608;2022-12-18T07:06:55;-6.50;99.90
23991;DHT22;12205;50.600;4.608;2022-12-18T07:09:23;-6.40;99.90
23991;DHT22;12205;50.600;4.608;2022-12-18T07:11:50;-6.40;99.90
23991;DHT22;12205;50.600;4.608;2022-12-18T07:14:17;-6.30;99.90
23991;DHT22;12205;50.600;4.608;2022-12-18T07:16:44;-6.30;99.90
23991;DHT22;12205;50.600;4.608;2022-12-18T07:19:13;-6.20;99.90
23991;DHT22;12205;50.600;4.608;2022-12-18T07:21:40;-6.20;99.90
23991;DHT22;12205;50.600;4.608;2022-12-18T07:24:07;-6.20;99.90
23991;DHT22;12205;50.600;4.608;2022-12-18T07:26:34;-6.20;99.90
23991;DHT22;12205;50.600;4.608;2022-12-18T07:29:02;-6.10;99.90
23991;DHT22;12205;50.600;4.608;2022-12-18T07:31:29;-6.00;99.90
23991;DHT22;12205;50.600;4.608;2022-12-18T07:33:56;-6.00;99.90
23991;DHT22;12205;50.600;4.608;2022-12-18T07:36:25;-6.00;99.90
23991;DHT22;12205;50.600;4.608;2022-12-18T07:38:52;-5.90;99.90
23991;DHT22;12205;50.600;4.608;2022-12-18T07:41:19;-5.80;99.90
23991;DHT22;12205;50.600;4.608;2022-12-18T07:43:47;-5.70;99.90
23991;DHT22;12205;50.600;4.608;2022-12-18T07:46:15;-5.60;99.90
23991;DHT22;12205;50.600;4.608;2022-12-18T07:48:43;-5.50;99.90
23991;DHT22;12205;50.600;4.608;2022-12-18T07:51:12;-5.50;99.90
23991;DHT22;12205;50.600;4.608;2022-12-18T07:53:41;-5.40;99.90
23991;DHT22;12205;50.600;4.608;2022-12-18T07:56:10;-5.30;99.90
23991;DHT22;12205;50.600;4.608;2022-12-18T07:58:38;-5.20;99.90
23991;DHT22;12205;50.600;4.608;2022-12-18T08:01:08;-5.20;99.90
23991;DHT22;12205;50.600;4.608;2022-12-18T08:03:37;-5.10;99.90
23991;DHT22;12205;50.600;4.608;2022-12-18T08:06:07;-5.10;99.90
23991;DHT22;12205;50.600;4.608;2022-12-18T08:08:35;-5.00;99.90
23991;DHT22;12205;50.600;4.608;2022-12-18T08:11:04;-5.00;99.90
23991;DHT22;12205;50.600;4.608;2022-12-18T08:13:31;-4.80;99.90
23991;DHT22;12205;50.600;4.608;2022-12-18T08:16:01;-4.80;99.90
23991;DHT22;12205;50.600;4.608;2022-12-18T08:18:31;-4.70;99.90
23991;DHT22;12205;50.600;4.608;2022-12-18T08:21:08;-4.60;99.90
23991;DHT22;12205;50.600;4.608;2022-12-18T08:23:35;-4.50;99.90
23991;DHT22;12205;50.600;4.608;2022-12-18T08:26:06;-4.40;99.90
23991;DHT22;12205;50.600;4.608;2022-12-18T08:28:33;-4.30;99.90
23991;DHT22;12205;50.600;4.608;2022-12-18T08:31:01;-4.20;99.90
23991;DHT22;12205;50.600;4.608;2022-12-18T08:33:28;-4.10;99.90
23991;DHT22;12205;50.600;4.608;2022-12-18T08:35:55;-4.10;99.90
23991;DHT22;12205;50.600;4.608;2022-12-18T08:38:22;-4.00;99.90
23991;DHT22;12205;50.600;4.608;2022-12-18T08:40:53;-3.90;99.90
23991;DHT22;12205;50.600;4.608;2022-12-18T08:43:26;-3.80;99.90
23991;DHT22;12205;50.600;4.608;2022-12-18T08:46:10;-3.60;99.90
23991;DHT22;12205;50.600;4.608;2022-12-18T08:48:38;-3.60;99.90
23991;DHT22;12205;50.600;4.608;2022-12-18T08:51:05;-3.50;99.90
23991;DHT22;12205;50.600;4.608;2022-12-18T08:53:32;-3.40;99.90
23991;DHT22;12205;50.600;4.608;2022-12-18T08:55:59;-3.40;99.90
23991;DHT22;12205;50.600;4.608;2022-12-18T08:58:28;-3.30;99.90
23991;DHT22;12205;50.600;4.608;2022-12-18T09:01:00;-3.20;99.90
23991;DHT22;12205;50.600;4.608;2022-12-18T09:03:28;-3.00;99.90
23991;DHT22;12205;50.600;4.608;2022-12-18T09:05:55;-2.90;99.90
23991;DHT22;12205;50.600;4.608;2022-12-18T09:08:22;-2.80;99.90
23991;DHT22;12205;50.600;4.608;2022-12-18T09:10:50;-2.60;99.90
23991;DHT22;12205;50.600;4.608;2022-12-18T09:13:17;-2.50;99.90
23991;DHT22;12205;50.600;4.608;2022-12-18T09:15:47;-2.40;99.90
23991;DHT22;12205;50.600;4.608;2022-12-18T09:18:18;-2.30;99.90
23991;DHT22;12205;50.600;4.608;2022-12-18T09:20:46;-2.10;99.90
23991;DHT22;12205;50.600;4.608;2022-12-18T09:23:13;-2.10;99.90
23991;DHT22;12205;50.600;4.608;2022-12-18T09:25:40;-2.00;99.90
23991;DHT22;12205;50.600;4.608;2022-12-18T09:28:14;-1.90;99.90
23991;DHT22;12205;50.600;4.608;2022-12-18T09:30:44;-1.80;99.90
23991;DHT22;12205;50.600;4.608;2022-12-18T09:33:14;-1.70;99.90
23991;DHT22;12205;50.600;4.608;2022-12-18T09:35:43;-1.60;99.90
23991;DHT22;12205;50.600;4.608;2022-12-18T09:38:13;-1.50;99.90
23991;DHT22;12205;50.600;4.608;2022-12-18T09:40:43;-1.50;99.90
23991;DHT22;12205;50.600;4.608;2022-12-18T09:43:15;-1.40;99.90
23991;DHT22;12205;50.600;4.608;2022-12-18T09:45:49;-1.30;99.90
23991;DHT22;12205;50.600;4.608;2022-12-18T09:48:25;-1.20;99.90
23991;DHT22;12205;50.600;4.608;2022-12-18T09:50:58;-1.10;99.90
23991;DHT22;12205;50.600;4.608;2022-12-18T09:53:32;-1.10;99.90
23991;DHT22;12205;50.600;4.608;2022-12-18T09:56:04;-1.00;99.90
23991;DHT22;12205;50.600;4.608;2022-12-18T09:58:36;-1.00;99.90
23991;DHT22;12205;50.600;4.608;2022-12-18T10:01:12;-0.90;99.90
23991;DHT22;12205;50.600;4.608;2022-12-18T10:03:44;-0.80;99.90
23991;DHT22;12205;50.600;4.608;2022-12-18T10:06:15;-0.70;99.90
23991;DHT22;12205;50.600;4.608;2022-12-18T10:08:53;-0.70;99.90
23991;DHT22;12205;50.600;4.608;2022-12-18T10:11:37;-0.60;99.90
23991;DHT22;12205;50.600;4.608;2022-12-18T10:14:16;-0.50;99.90
23991;DHT22;12205;50.600;4.608;2022-12-18T10:17:00;-0.50;99.90
23991;DHT22;12205;50.600;4.608;2022-12-18T10:19:40;-0.40;99.90
23991;DHT22;12205;50.600;4.608;2022-12-18T10:22:38;-0.30;99.90
23991;DHT22;12205;50.600;4.608;2022-12-18T10:25:20;-0.20;99.90
23991;DHT22;12205;50.600;4.608;2022-12-18T10:27:53;-0.20;99.90
23991;DHT22;12205;50.600;4.608;2022-12-18T10:30:25;-0.10;99.90
23991;DHT22;12205;50.600;4.608;2022-12-18T10:32:54;-0.10;99.90
23991;DHT22;12205;50.600;4.608;2022-12-18T10:35:24;0.00;99.90
23991;DHT22;12205;50.600;4.608;2022-12-18T10:38:04;0.00;99.90
23991;DHT22;12205;50.600;4.608;2022-12-18T10:40:47;0.00;99.90
23991;DHT22;12205;50.600;4.608;2022-12-18T10:43:20;0.10;99.90
23991;DHT22;12205;50.600;4.608;2022-12-18T10:46:01;0.20;99.90
23991;DHT22;12205;50.600;4.608;2022-12-18T10:48:50;0.20;99.90
23991;DHT22;12205;50.600;4.608;2022-12-18T10:51:22;0.30;99.90
23991;DHT22;12205;50.600;4.608;2022-12-18T10:53:54;0.30;99.90
23991;DHT22;12205;50.600;4.608;2022-12-18T10:56:26;0.40;99.90
23991;DHT22;12205;50.600;4.608;2022-12-18T10:59:00;0.40;99.90
23991;DHT22;12205;50.600;4.608;2022-12-18T11:01:46;0.50;99.90
23991;DHT22;12205;50.600;4.608;2022-12-18T11:04:21;0.50;99.90
23991;DHT22;12205;50.600;4.608;2022-12-18T11:06:58;0.60;99.90
23991;DHT22;12205;50.600;4.608;2022-12-18T11:09:28;0.60;99.90
23991;DHT22;12205;50.600;4.608;2022-12-18T11:11:58;0.70;99.90
23991;DHT22;12205;50.600;4.608;2022-12-18T11:14:28;0.70;99.90
23991;DHT22;12205;50.600;4.608;2022-12-18T11:16:59;0.70;99.90
23991;DHT22;12205;50.600;4.608;2022-12-18T11:19:33;0.70;99.90
23991;DHT22;12205;50.600;4.608;2022-12-18T11:22:17;0.80;99.90
23991;DHT22;12205;50.600;4.608;2022-12-18T11:24:53;0.80;99.90
23991;DHT22;12205;50.600;4.608;2022-12-18T11:27:22;0.80;99.90
23991;DHT22;12205;50.600;4.608;2022-12-18T11:29:50;0.90;99.90
23991;DHT22;12205;50.600;4.608;2022-12-18T11:32:27;0.90;99.90
23991;DHT22;12205;50.600;4.608;2022-12-18T11:35:15;0.90;99.90
23991;DHT22;12205;50.600;4.608;2022-12-18T11:37:49;0.90;99.90
23991;DHT22;12205;50.600;4.608;2022-12-18T11:40:30;0.90;99.90
23991;DHT22;12205;50.600;4.608;2022-12-18T11:43:07;1.00;99.90
23991;DHT22;12205;50.600;4.608;2022-12-18T11:45:42;0.90;99.90
23991;DHT22;12205;50.600;4.608;2022-12-18T11:48:17;0.90;99.90
23991;DHT22;12205;50.600;4.608;2022-12-18T11:50:53;1.00;99.90
23991;DHT22;12205;50.600;4.608;2022-12-18T11:53:22;1.00;99.90
23991;DHT22;12205;50.600;4.608;2022-12-18T11:56:07;1.00;99.90
23991;DHT22;12205;50.600;4.608;2022-12-18T11:59:00;1.00;99.90
23991;DHT22;12205;50.600;4.608;2022-12-18T12:01:46;1.00;99.90
23991;DHT22;12205;50.600;4.608;2022-12-18T12:04:35;0.90;99.90
23991;DHT22;12205;50.600;4.608;2022-12-18T12:07:23;1.00;99.90
23991;DHT22;12205;50.600;4.608;2022-12-18T12:10:07;1.00;99.90
23991;DHT22;12205;50.600;4.608;2022-12-18T12:12:58;1.10;99.90
23991;DHT22;12205;50.600;4.608;2022-12-18T12:15:39;1.10;99.90
23991;DHT22;12205;50.600;4.608;2022-12-18T12:18:22;1.20;99.90
23991;DHT22;12205;50.600;4.608;2022-12-18T12:21:01;1.20;99.90
23991;DHT22;12205;50.600;4.608;2022-12-18T12:23:42;1.30;99.90
23991;DHT22;12205;50.600;4.608;2022-12-18T12:26:24;1.20;99.90
23991;DHT22;12205;50.600;4.608;2022-12-18T12:29:06;1.20;99.90
23991;DHT22;12205;50.600;4.608;2022-12-18T12:32:01;1.30;99.90
23991;DHT22;12205;50.600;4.608;2022-12-18T12:34:47;1.30;99.90
23991;DHT22;12205;50.600;4.608;2022-12-18T12:37:29;1.30;99.90
23991;DHT22;12205;50.600;4.608;2022-12-18T12:40:05;1.30;99.90
23991;DHT22;12205;50.600;4.608;2022-12-18T12:42:37;1.30;99.90
23991;DHT22;12205;50.600;4.608;2022-12-18T12:45:30;1.30;99.90
23991;DHT22;12205;50.600;4.608;2022-12-18T12:48:02;1.30;99.90
23991;DHT22;12205;50.600;4.608;2022-12-18T12:50:33;1.30;99.90
23991;DHT22;12205;50.600;4.608;2022-12-18T12:53:06;1.30;99.90
23991;DHT22;12205;50.600;4.608;2022-12-18T12:55:38;1.30;99.90
23991;DHT22;12205;50.600;4.608;2022-12-18T12:58:15;1.30;99.90
23991;DHT22;12205;50.600;4.608;2022-12-18T13:00:56;1.30;99.90
23991;DHT22;12205;50.600;4.608;2022-12-18T13:03:42;1.30;99.90
23991;DHT22;12205;50.600;4.608;2022-12-18T13:06:25;1.40;99.90
23991;DHT22;12205;50.600;4.608;2022-12-18T13:09:02;1.40;99.90
23991;DHT22;12205;50.600;4.608;2022-12-18T13:11:36;1.40;99.90
23991;DHT22;12205;50.600;4.608;2022-12-18T13:14:26;1.40;99.90
23991;DHT22;12205;50.600;4.608;2022-12-18T13:17:28;1.30;99.90
23991;DHT22;12205;50.600;4.608;2022-12-18T13:20:05;1.30;99.90
23991;DHT22;12205;50.600;4.608;2022-12-18T13:22:37;1.30;99.90
23991;DHT22;12205;50.600;4.608;2022-12-18T13:25:28;1.30;99.90
23991;DHT22;12205;50.600;4.608;2022-12-18T13:28:03;1.30;99.90
23991;DHT22;12205;50.600;4.608;2022-12-18T13:30:55;1.30;99.90
23991;DHT22;12205;50.600;4.608;2022-12-18T13:33:47;1.30;99.90
23991;DHT22;12205;50.600;4.608;2022-12-18T13:36:32;1.30;99.90
23991;DHT22;12205;50.600;4.608;2022-12-18T13:39:20;1.30;99.90
23991;DHT22;12205;50.600;4.608;2022-12-18T13:41:53;1.30;99.90
23991;DHT22;12205;50.600;4.608;2022-12-18T13:45:35;1.40;99.90
23991;DHT22;12205;50.600;4.608;2022-12-18T13:48:15;1.30;99.90
23991;DHT22;12205;50.600;4.608;2022-12-18T13:50:49;1.20;99.90
23991;DHT22;12205;50.600;4.608;2022-12-18T13:53:24;1.20;99.90
23991;DHT22;12205;50.600;4.608;2022-12-18T13:55:54;1.20;99.90
23991;DHT22;12205;50.600;4.608;2022-12-18T13:58:21;1.20;99.90
23991;DHT22;12205;50.600;4.608;2022-12-18T14:00:50;1.20;99.90
23991;DHT22;12205;50.600;4.608;2022-12-18T14:03:22;1.20;99.90
23991;DHT22;12205;50.600;4.608;2022-12-18T14:05:58;1.20;99.90
23991;DHT22;12205;50.600;4.608;2022-12-18T14:08:33;1.20;99.90
23991;DHT22;12205;50.600;4.608;2022-12-18T14:11:05;1.20;99.90
23991;DHT22;12205;50.600;4.608;2022-12-18T14:13:36;1.20;99.90
23991;DHT22;12205;50.600;4.608;2022-12-18T14:16:07;1.20;99.90
23991;DHT22;12205;50.600;4.608;2022-12-18T14:18:41;1.20;99.90
23991;DHT22;12205;50.600;4.608;2022-12-18T14:21:21;1.20;99.90
23991;DHT22;12205;50.600;4.608;2022-12-18T14:24:03;1.20;99.90
23991;DHT22;12205;50.600;4.608;2022-12-18T14:26:31;1.20;99.90
23991;DHT22;12205;50.600;4.608;2022-12-18T14:29:00;1.30;99.90
23991;DHT22;12205;50.600;4.608;2022-12-18T14:31:45;1.30;99.90
23991;DHT22;12205;50.600;4.608;2022-12-18T14:34:15;1.30;99.90
23991;DHT22;12205;50.600;4.608;2022-12-18T14:36:52;1.30;99.90
23991;DHT22;12205;50.600;4.608;2022-12-18T14:39:21;1.30;99.90
23991;DHT22;12205;50.600;4.608;2022-12-18T14:41:49;1.20;99.90
23991;DHT22;12205;50.600;4.608;2022-12-18T14:44:16;1.20;99.90
23991;DHT22;12205;50.600;4.608;2022-12-18T14:46:46;1.20;99.90
23991;DHT22;12205;50.600;4.608;2022-12-18T14:49:20;1.10;99.90
23991;DHT22;12205;50.600;4.608;2022-12-18T14:51:53;1.20;99.90
23991;DHT22;12205;50.600;4.608;2022-12-18T14:54:22;1.20;99.90
23991;DHT22;12205;50.600;4.608;2022-12-18T14:56:53;1.20;99.90
23991;DHT22;12205;50.600;4.608;2022-12-18T14:59:27;1.20;99.90
23991;DHT22;12205;50.600;4.608;2022-12-18T15:02:01;1.10;99.90
23991;DHT22;12205;50.600;4.608;2022-12-18T15:04:36;1.20;99.90
23991;DHT22;12205;50.600;4.608;2022-12-18T15:07:09;1.10;99.90
23991;DHT22;12205;50.600;4.608;2022-12-18T15:10:00;1.00;99.90
23991;DHT22;12205;50.600;4.608;2022-12-18T15:12:34;1.00;99.90
23991;DHT22;12205;50.600;4.608;2022-12-18T15:15:04;1.00;99.90
23991;DHT22;12205;50.600;4.608;2022-12-18T15:17:33;1.00;99.90
23991;DHT22;12205;50.600;4.608;2022-12-18T15:20:02;1.00;99.90
23991;DHT22;12205;50.600;4.608;2022-12-18T15:22:37;0.90;99.90
23991;DHT22;12205;50.600;4.608;2022-12-18T15:25:24;1.00;99.90
23991;DHT22;12205;50.600;4.608;2022-12-18T15:27:55;1.00;99.90
23991;DHT22;12205;50.600;4.608;2022-12-18T15:30:24;1.00;99.90
23991;DHT22;12205;50.600;4.608;2022-12-18T15:33:17;1.00;99.90
23991;DHT22;12205;50.600;4.608;2022-12-18T15:35:56;1.00;99.90
23991;DHT22;12205;50.600;4.608;2022-12-18T15:38:24;0.90;99.90
23991;DHT22;12205;50.600;4.608;2022-12-18T15:40:52;1.00;99.90
23991;DHT22;12205;50.600;4.608;2022-12-18T15:43:20;1.00;99.90
23991;DHT22;12205;50.600;4.608;2022-12-18T15:46:00;0.90;99.90
23991;DHT22;12205;50.600;4.608;2022-12-18T15:48:29;0.90;99.90
23991;DHT22;12205;50.600;4.608;2022-12-18T15:50:58;0.90;99.90
23991;DHT22;12205;50.600;4.608;2022-12-18T15:53:27;0.90;99.90
23991;DHT22;12205;50.600;4.608;2022-12-18T15:55:57;0.90;99.90
23991;DHT22;12205;50.600;4.608;2022-12-18T15:58:42;0.80;99.90
23991;DHT22;12205;50.600;4.608;2022-12-18T16:01:10;0.90;99.90
23991;DHT22;12205;50.600;4.608;2022-12-18T16:03:39;0.90;99.90
23991;DHT22;12205;50.600;4.608;2022-12-18T16:06:08;0.90;99.90
23991;DHT22;12205;50.600;4.608;2022-12-18T16:08:36;0.90;99.90
23991;DHT22;12205;50.600;4.608;2022-12-18T16:11:03;0.90;99.90